Time;durP1;ratioP1;P1;durP2;ratioP2;P2;SDS_P1;SDS_P2;PMS_P1;PMS_P2;Temp;Humidity;BMP_temperature;BMP_pressure;BME280_temperature;BME280_humidity;BME280_pressure;Samples;Min_cycle;Max_cycle;Signal;HPM_P1;HPM_P2
2023/11/21 00:02:33;;;;;;;11.45;1.60;;;16.70;99.90;;;;;;10536224;28;20490;-29
2023/11/21 00:07:35;;;;;;;9.30;5.10;;;16.00;99.90;;;;;;10541919;28;20142;-29
2023/11/21 00:12:41;;;;;;;11.27;3.80;;;16.60;99.90;;;;;;10541808;28;20119;-29
2023/11/21 00:17:43;;;;;;;7.90;4.68;;;16.80;99.90;;;;;;10542626;28;22864;-28
2023/11/21 00:22:45;;;;;;;12.43;5.20;;;16.60;99.90;;;;;;10542327;28;20152;-30
2023/11/21 00:27:48;;;;;;;12.20;5.27;;;16.90;99.90;;;;;;10543764;28;20054;-28
2023/11/21 00:32:50;;;;;;;6.90;3.88;;;16.00;99.90;;;;;;10551485;28;20166;-27
2023/11/21 00:37:52;;;;;;;13.73;6.77;;;15.30;99.90;;;;;;10548348;28;20078;-28
2023/11/21 00:42:55;;;;;;;12.98;6.57;;;15.80;99.90;;;;;;10547079;27;20051;-27
2023/11/21 00:47:58;;;;;;;11.55;7.40;;;15.50;99.90;;;;;;10549292;27;20158;-27
2023/11/21 00:53:00;;;;;;;5.80;2.72;;;16.20;99.90;;;;;;10548112;28;20568;-29
2023/11/21 00:58:04;;;;;;;10.52;6.18;;;16.00;99.90;;;;;;10546389;28;20056;-28
2023/11/21 01:03:07;;;;;;;10.60;6.18;;;16.40;99.90;;;;;;10546167;28;20484;-27
2023/11/21 01:08:10;;;;;;;12.60;5.93;;;16.80;99.90;;;;;;10544352;28;20078;-28
2023/11/21 01:13:15;;;;;;;13.13;7.07;;;17.00;99.90;;;;;;10540445;28;20051;-28
2023/11/21 01:18:16;;;;;;;13.13;6.53;;;17.10;99.90;;;;;;10551711;27;20295;-30
2023/11/21 01:23:18;;;;;;;7.67;4.97;;;17.20;99.90;;;;;;10549874;28;20814;-28
2023/11/21 01:28:21;;;;;;;10.13;5.53;;;17.10;99.90;;;;;;10553483;27;20138;-27
2023/11/21 01:33:24;;;;;;;10.27;5.43;;;17.20;99.90;;;;;;10551231;27;20854;-28
2023/11/21 01:38:26;;;;;;;12.77;6.25;;;17.20;99.90;;;;;;10549552;28;20048;-27
2023/11/21 01:43:31;;;;;;;12.30;6.53;;;17.30;99.90;;;;;;10549523;28;20211;-28
2023/11/21 01:48:33;;;;;;;9.75;4.45;;;17.30;99.90;;;;;;10547340;28;21317;-28
2023/11/21 01:53:36;;;;;;;8.68;5.03;;;17.10;99.80;;;;;;10548419;28;20642;-28
2023/11/21 01:58:40;;;;;;;8.40;5.10;;;17.10;99.90;;;;;;10549231;28;20078;-27
2023/11/21 02:03:41;;;;;;;11.13;5.22;;;17.30;99.90;;;;;;10549731;28;20193;-28
2023/11/21 02:08:44;;;;;;;8.50;4.80;;;17.40;99.90;;;;;;10549639;28;20058;-28
2023/11/21 02:13:49;;;;;;;8.73;4.68;;;17.30;99.90;;;;;;10551558;28;20070;-28
2023/11/21 02:18:52;;;;;;;7.07;4.18;;;17.30;99.90;;;;;;10545807;28;20649;-29
2023/11/21 02:23:56;;;;;;;6.97;4.53;;;17.30;99.90;;;;;;10552055;28;20047;-32
2023/11/21 02:28:58;;;;;;;6.68;4.03;;;17.40;99.90;;;;;;10553624;28;20126;-29
2023/11/21 02:34:00;;;;;;;7.75;3.85;;;17.40;99.90;;;;;;10551094;28;20058;-29
2023/11/21 02:39:03;;;;;;;6.53;4.37;;;17.40;99.80;;;;;;10550130;28;20131;-28
2023/11/21 02:44:06;;;;;;;4.47;3.33;;;17.40;99.90;;;;;;10549514;27;20958;-27
2023/11/21 02:49:10;;;;;;;6.25;3.70;;;17.50;99.80;;;;;;10547761;27;20158;-28
2023/11/21 02:54:13;;;;;;;5.70;3.28;;;17.30;99.90;;;;;;10547579;27;20054;-27
2023/11/21 02:59:15;;;;;;;6.85;3.40;;;17.30;99.80;;;;;;10547531;28;20093;-28
2023/11/21 03:04:18;;;;;;;6.75;3.53;;;17.40;99.80;;;;;;10549170;28;20047;-27
2023/11/21 03:09:21;;;;;;;;;;;17.40;99.60;;;;;;10552616;27;20774;-29
2023/11/21 03:14:22;;;;;;;;;;;17.40;99.70;;;;;;10546393;27;19924;-29
2023/11/21 03:19:24;;;;;;;3.42;2.33;;;17.50;99.60;;;;;;10548648;28;19999;-26
2023/11/21 03:24:27;;;;;;;4.90;3.03;;;17.50;99.50;;;;;;10565662;28;20079;-28
2023/11/21 03:29:29;;;;;;;3.95;2.50;;;17.50;99.30;;;;;;10549624;28;20627;-27
2023/11/21 03:34:32;;;;;;;5.13;3.10;;;17.50;99.40;;;;;;10551284;28;20112;-28
2023/11/21 03:39:36;;;;;;;3.80;2.47;;;17.50;99.40;;;;;;10543031;27;21013;-28
2023/11/21 03:44:37;;;;;;;4.07;2.47;;;17.50;99.30;;;;;;10550506;28;20221;-29
2023/11/21 03:49:39;;;;;;;5.07;2.73;;;17.50;99.30;;;;;;10549013;27;20570;-27
2023/11/21 03:54:42;;;;;;;3.23;2.10;;;17.50;99.40;;;;;;10545127;27;20422;-27
2023/11/21 04:15:31;;;;;;;4.50;2.20;;;17.10;99.80;;;;;;10571796;27;20140;-27
2023/11/21 04:20:33;;;;;;;3.60;2.15;;;17.10;99.90;;;;;;10597666;27;20525;-27
2023/11/21 04:25:34;;;;;;;3.72;2.22;;;17.20;99.90;;;;;;10590733;27;20054;-30
2023/11/21 04:30:39;;;;;;;3.97;2.60;;;17.20;99.90;;;;;;10587796;27;20061;-28
2023/11/21 04:35:41;;;;;;;3.88;2.25;;;17.20;99.90;;;;;;10599381;27;20131;-28
2023/11/21 04:40:43;;;;;;;3.20;2.10;;;17.20;99.90;;;;;;10597106;27;20292;-28
2023/11/21 04:45:46;;;;;;;3.33;1.88;;;17.20;99.90;;;;;;10587432;27;20056;-34
2023/11/21 04:50:47;;;;;;;3.13;1.90;;;17.30;99.90;;;;;;10589389;27;20055;-27
2023/11/21 04:55:49;;;;;;;2.83;1.80;;;17.40;99.90;;;;;;10597196;27;20496;-28
2023/11/21 05:00:52;;;;;;;3.50;2.33;;;17.10;99.90;;;;;;10588438;27;20116;-28
2023/11/21 05:05:55;;;;;;;3.22;1.00;;;16.30;99.90;;;;;;10590126;27;23265;-27
2023/11/21 05:10:57;;;;;;;3.17;2.20;;;16.10;99.90;;;;;;10595212;27;20058;-28
2023/11/21 05:16:03;;;;;;;2.40;1.48;;;16.60;99.90;;;;;;10587107;27;20050;-27
2023/11/21 05:21:06;;;;;;;2.33;1.45;;;17.00;99.90;;;;;;10589004;27;20049;-27
2023/11/21 05:26:08;;;;;;;;;;;17.20;99.90;;;;;;10563449;27;20076;-28
2023/11/21 05:31:11;;;;;;;1.73;1.13;;;17.10;99.90;;;;;;10563993;27;19927;-28
2023/11/21 05:36:13;;;;;;;1.98;1.13;;;17.20;99.90;;;;;;10558506;27;20043;-27
2023/11/21 05:41:15;;;;;;;3.43;1.17;;;17.30;99.90;;;;;;10566739;27;20736;-30
2023/11/21 05:46:19;;;;;;;1.80;0.98;;;17.40;99.90;;;;;;10561100;27;20425;-31
2023/11/21 05:51:20;;;;;;;1.42;0.88;;;17.40;99.90;;;;;;10571729;27;20044;-29
2023/11/21 05:56:22;;;;;;;1.80;0.80;;;17.40;99.90;;;;;;10566195;27;20051;-28
2023/11/21 06:01:28;;;;;;;4.82;1.23;;;17.40;99.90;;;;;;10559739;27;20838;-29
2023/11/21 06:06:31;;;;;;;2.58;1.10;;;17.30;99.90;;;;;;10571066;27;20054;-28
2023/11/21 06:11:33;;;;;;;1.92;0.90;;;17.60;99.80;;;;;;10562087;27;20039;-28
2023/11/21 06:16:36;;;;;;;1.42;0.77;;;17.30;99.90;;;;;;10568067;27;20512;-28
2023/11/21 06:21:38;;;;;;;0.98;0.70;;;17.20;99.90;;;;;;10571659;27;20046;-28
2023/11/21 06:26:41;;;;;;;1.10;0.70;;;17.20;99.90;;;;;;10573027;27;20063;-29
2023/11/21 06:31:44;;;;;;;;;;;17.10;99.90;;;;;;10569632;27;20047;-28
2023/11/21 06:36:45;;;;;;;;;;;16.90;99.90;;;;;;10569141;27;19923;-28
2023/11/21 06:41:50;;;;;;;0.93;0.52;;;16.70;99.90;;;;;;10566815;27;19923;-27
2023/11/21 06:46:53;;;;;;;2.85;0.75;;;16.00;99.90;;;;;;10566647;27;20055;-28
2023/11/21 06:51:55;;;;;;;1.88;0.82;;;15.90;99.90;;;;;;10563742;27;20096;-27
2023/11/21 06:56:58;;;;;;;2.58;1.10;;;16.00;99.90;;;;;;10563843;27;20793;-28
2023/11/21 07:02:01;;;;;;;1.65;0.95;;;16.80;99.90;;;;;;10558920;27;20080;-29
2023/11/21 07:07:03;;;;;;;1.88;1.08;;;17.00;99.90;;;;;;10565078;27;20134;-27
2023/11/21 07:12:07;;;;;;;1.73;0.98;;;17.10;99.90;;;;;;10562951;27;20115;-29
2023/11/21 07:17:11;;;;;;;2.03;1.50;;;16.70;99.90;;;;;;10549139;27;20058;-26
2023/11/21 07:22:13;;;;;;;3.05;1.25;;;16.80;99.90;;;;;;10555311;27;20198;-28
2023/11/21 07:27:15;;;;;;;3.33;1.83;;;16.60;99.90;;;;;;10562436;27;20047;-29
2023/11/21 07:32:18;;;;;;;3.07;1.30;;;16.30;99.90;;;;;;10556335;27;20180;-27
2023/11/21 07:37:20;;;;;;;2.95;1.42;;;16.20;99.90;;;;;;10552850;27;20047;-28
2023/11/21 07:42:22;;;;;;;7.22;1.50;;;16.30;99.90;;;;;;10559930;27;20046;-29
2023/11/21 07:47:27;;;;;;;6.63;2.17;;;16.10;99.90;;;;;;10559629;27;20162;-30
2023/11/21 07:52:28;;;;;;;4.25;1.58;;;15.90;99.90;;;;;;10545743;27;20060;-27
2023/11/21 07:57:30;;;;;;;6.73;2.27;;;16.10;99.90;;;;;;10552146;27;20144;-28
2023/11/21 08:02:34;;;;;;;4.63;2.40;;;15.80;99.90;;;;;;10554199;27;20067;-26
2023/11/21 08:07:36;;;;;;;6.47;2.25;;;15.80;99.90;;;;;;10558082;27;20070;-29
2023/11/21 08:12:38;;;;;;;4.30;2.30;;;15.80;99.90;;;;;;10556316;27;20051;-28
2023/11/21 08:17:41;;;;;;;5.32;1.92;;;15.90;99.90;;;;;;10545900;28;20128;-28
2023/11/21 08:22:43;;;;;;;3.92;1.75;;;16.20;99.90;;;;;;10557695;28;20809;-28
2023/11/21 08:27:45;;;;;;;6.30;2.00;;;16.30;99.90;;;;;;10556831;28;20043;-28
2023/11/21 08:32:48;;;;;;;2.33;1.40;;;16.20;99.90;;;;;;10555024;28;20677;-28
2023/11/21 08:37:52;;;;;;;8.30;2.10;;;16.20;99.90;;;;;;10552056;27;20048;-27
2023/11/21 08:42:54;;;;;;;3.70;1.50;;;16.20;99.90;;;;;;10551119;28;20048;-27
2023/11/21 08:47:57;;;;;;;3.60;1.30;;;16.70;99.90;;;;;;10558832;28;20430;-27
2023/11/21 08:52:59;;;;;;;5.00;1.80;;;16.40;99.90;;;;;;10560668;28;20412;-28
2023/11/21 08:58:01;;;;;;;4.07;1.07;;;16.20;99.90;;;;;;10558632;27;20051;-29
2023/11/21 09:03:08;;;;;;;2.60;1.20;;;16.00;99.90;;;;;;10567118;27;20147;-28
2023/11/21 09:08:10;;;;;;;2.92;1.25;;;16.00;99.90;;;;;;10560321;27;20055;-32
2023/11/21 09:13:12;;;;;;;5.87;1.30;;;15.70;99.90;;;;;;10559519;27;20166;-28
2023/11/21 09:18:16;;;;;;;2.80;1.10;;;16.00;99.90;;;;;;10558341;27;20436;-28
2023/11/21 09:23:17;;;;;;;2.17;1.23;;;16.10;99.90;;;;;;10565434;27;20056;-27
2023/11/21 09:28:19;;;;;;;4.30;1.83;;;16.10;99.90;;;;;;10567484;27;20790;-29
2023/11/21 09:33:24;;;;;;;4.20;1.57;;;15.50;99.90;;;;;;10564295;27;20047;-27
2023/11/21 09:38:28;;;;;;;3.13;1.65;;;15.80;99.90;;;;;;10563460;27;20051;-28
2023/11/21 09:43:32;;;;;;;6.20;1.77;;;16.10;99.90;;;;;;10562084;27;20047;-30
2023/11/21 09:48:38;;;;;;;8.63;1.42;;;15.20;99.90;;;;;;10548690;27;20119;-27
2023/11/21 09:53:43;;;;;;;6.28;2.25;;;14.50;99.90;;;;;;10545167;27;20100;-27
2023/11/21 09:58:45;;;;;;;8.90;5.13;;;15.10;99.90;;;;;;10543119;27;20807;-28
2023/11/21 10:03:49;;;;;;;10.17;6.20;;;15.60;99.90;;;;;;10553547;27;20127;-27
2023/11/21 10:08:52;;;;;;;16.75;9.40;;;16.20;99.90;;;;;;10554648;27;20087;-28
2023/11/21 10:13:57;;;;;;;16.17;8.80;;;16.00;99.90;;;;;;10559035;27;20046;-29
2023/11/21 10:19:01;;;;;;;22.50;11.32;;;16.00;99.90;;;;;;10567036;27;20047;-26
2023/11/21 10:24:03;;;;;;;20.17;10.88;;;16.30;99.90;;;;;;10558660;27;20581;-28
2023/11/21 10:29:04;;;;;;;16.40;8.73;;;16.10;99.90;;;;;;10546941;27;20138;-27
2023/11/21 10:34:16;;;;;;;16.97;9.97;;;15.90;99.90;;;;;;10560937;27;20137;-28
2023/11/21 10:39:19;;;;;;;17.00;10.93;;;15.70;99.90;;;;;;10557677;27;20063;-27
2023/11/21 10:44:22;;;;;;;23.55;12.27;;;15.90;99.90;;;;;;10553901;27;20139;-29
2023/11/21 10:49:26;;;;;;;22.02;13.57;;;15.70;99.90;;;;;;10552666;27;20059;-27
2023/11/21 10:54:28;;;;;;;17.83;11.07;;;16.30;99.90;;;;;;10557110;27;20098;-28
2023/11/21 10:59:31;;;;;;;22.33;14.27;;;16.50;99.90;;;;;;10561903;27;20071;-29
2023/11/21 11:04:37;;;;;;;22.98;14.40;;;16.20;99.90;;;;;;10561394;27;20048;-28
2023/11/21 11:09:39;;;;;;;23.08;14.98;;;16.30;99.90;;;;;;10551983;27;20546;-28
2023/11/21 11:14:43;;;;;;;22.83;13.97;;;16.70;99.90;;;;;;10550284;27;20609;-29
2023/11/21 11:19:47;;;;;;;23.15;14.63;;;16.90;99.90;;;;;;10557191;27;20621;-28
2023/11/21 11:25:13;;;;;;;20.10;10.27;;;17.00;99.90;;;;;;10554165;27;20162;-28
2023/11/21 11:30:21;;;;;;;25.08;15.63;;;16.90;99.90;;;;;;10561064;27;20047;-28
2023/11/21 11:35:34;;;;;;;20.30;13.88;;;16.70;99.90;;;;;;10562204;27;20417;-29
2023/11/21 11:40:45;;;;;;;21.85;13.55;;;17.10;99.90;;;;;;10558693;27;20154;-28
2023/11/21 11:45:51;;;;;;;27.13;14.15;;;17.10;99.90;;;;;;10544075;27;20076;-28
2023/11/21 11:51:08;;;;;;;21.55;13.73;;;17.30;99.90;;;;;;10551689;27;20877;-27
2023/11/21 11:56:28;;;;;;;20.77;13.43;;;17.50;99.90;;;;;;10554584;27;20055;-27
2023/11/21 12:01:30;;;;;;;22.80;12.82;;;17.50;99.90;;;;;;10546810;27;20047;-29
2023/11/21 12:06:36;;;;;;;18.98;10.45;;;17.30;99.90;;;;;;10554136;27;20099;-27
2023/11/21 12:11:38;;;;;;;21.33;12.38;;;17.60;99.90;;;;;;10550861;28;22620;-30
2023/11/21 12:16:40;;;;;;;22.05;12.80;;;17.80;99.90;;;;;;10545664;28;20613;-27
2023/11/21 12:21:44;;;;;;;19.37;11.43;;;17.40;99.90;;;;;;10551592;28;20117;-28
2023/11/21 12:26:45;;;;;;;17.02;11.23;;;17.60;99.90;;;;;;10550255;28;20054;-28
2023/11/21 12:31:50;;;;;;;16.63;10.23;;;18.00;99.90;;;;;;10555379;27;20107;-28
2023/11/21 12:36:54;;;;;;;15.25;9.48;;;18.00;99.90;;;;;;10558450;27;20485;-27
2023/11/21 12:41:56;;;;;;;16.90;10.02;;;18.10;99.60;;;;;;10555055;27;20099;-27
2023/11/21 12:46:58;;;;;;;16.85;9.50;;;18.00;99.90;;;;;;10571177;27;20074;-27
2023/11/21 12:52:03;;;;;;;17.10;8.75;;;18.10;99.90;;;;;;10555746;27;20047;-28
2023/11/21 12:57:08;;;;;;;13.07;8.27;;;18.20;99.60;;;;;;10555488;27;20051;-27
2023/11/21 13:02:10;;;;;;;11.45;7.60;;;18.00;99.60;;;;;;10562801;27;20779;-28
2023/11/21 13:07:14;;;;;;;4.82;3.17;;;18.30;99.20;;;;;;10561661;27;20221;-27
2023/11/21 13:12:18;;;;;;;9.27;5.75;;;17.80;95.70;;;;;;10561078;27;20059;-29
2023/11/21 13:17:22;;;;;;;8.35;4.35;;;17.60;99.30;;;;;;10560092;27;20422;-28
2023/11/21 13:22:25;;;;;;;6.68;3.95;;;17.40;98.00;;;;;;10562171;27;20047;-28
2023/11/21 13:27:27;;;;;;;6.32;4.25;;;17.30;99.90;;;;;;10560970;27;20632;-26
2023/11/21 13:32:29;;;;;;;9.25;4.25;;;17.70;99.10;;;;;;10561601;27;20052;-27
2023/11/21 13:37:32;;;;;;;5.47;3.70;;;17.90;99.20;;;;;;10559000;27;20390;-28
2023/11/21 13:42:34;;;;;;;6.22;3.80;;;18.00;99.30;;;;;;10562500;27;20220;-28
2023/11/21 13:47:37;;;;;;;7.17;3.03;;;18.30;98.50;;;;;;10564610;27;20043;-27
2023/11/21 13:52:41;;;;;;;4.43;3.08;;;17.90;98.00;;;;;;10555297;27;20468;-27
2023/11/21 13:57:44;;;;;;;6.10;3.00;;;17.90;99.20;;;;;;10560150;27;20104;-28
2023/11/21 14:02:46;;;;;;;4.45;2.50;;;18.10;98.00;;;;;;10559813;27;20056;-29
2023/11/21 14:07:51;;;;;;;4.63;2.88;;;17.80;98.30;;;;;;10554329;27;20047;-29
2023/11/21 14:12:53;;;;;;;4.28;2.53;;;18.10;99.80;;;;;;10557735;27;20059;-29
2023/11/21 14:17:55;;;;;;;3.30;2.30;;;18.20;98.00;;;;;;10561335;27;20055;-28
2023/11/21 14:22:58;;;;;;;4.32;2.60;;;18.30;98.30;;;;;;10565351;27;20142;-27
2023/11/21 14:28:00;;;;;;;3.58;2.65;;;18.30;98.20;;;;;;10556475;27;20058;-28
2023/11/21 14:33:02;;;;;;;4.35;2.50;;;18.50;98.80;;;;;;10561474;27;20104;-28
2023/11/21 14:38:07;;;;;;;5.10;2.85;;;18.60;98.00;;;;;;10557956;27;20048;-29
2023/11/21 14:43:09;;;;;;;2.80;2.10;;;18.70;98.40;;;;;;10559157;27;20612;-25
2023/11/21 14:48:15;;;;;;;5.15;2.60;;;18.60;98.50;;;;;;10562179;27;20043;-27
2023/11/21 14:53:42;;;;;;;3.78;2.38;;;18.50;97.00;;;;;;10564183;27;20048;-29
2023/11/21 14:58:40;;;;;;;6.50;3.13;;;18.80;98.20;;;;;;10549181;27;20066;-28
2023/11/21 15:03:49;;;;;;;3.00;2.28;;;18.70;97.90;;;;;;10551983;27;20199;-31
2023/11/21 15:08:59;;;;;;;2.40;1.90;;;18.80;98.20;;;;;;10566738;27;20055;-30
2023/11/21 15:14:06;;;;;;;3.53;2.28;;;18.60;97.40;;;;;;10555807;27;20122;-27
2023/11/21 15:19:09;;;;;;;3.75;2.30;;;18.80;98.00;;;;;;10556461;27;20518;-27
2023/11/21 15:24:12;;;;;;;7.00;2.17;;;18.80;97.90;;;;;;10550724;27;20364;-29
2023/11/21 15:29:14;;;;;;;3.72;2.10;;;18.50;97.70;;;;;;10558896;27;20154;-30
2023/11/21 15:34:17;;;;;;;5.95;2.22;;;18.70;98.30;;;;;;10559530;27;20039;-27
2023/11/21 15:39:21;;;;;;;2.65;1.60;;;18.60;97.80;;;;;;10565964;27;20051;-28
2023/11/21 15:44:25;;;;;;;3.72;1.90;;;18.80;97.90;;;;;;10556577;27;20054;-29
2023/11/21 15:49:28;;;;;;;5.78;2.17;;;18.60;98.40;;;;;;10562690;27;20109;-27
2023/11/21 15:54:31;;;;;;;2.47;1.70;;;18.70;98.20;;;;;;10565934;27;20516;-29
2023/11/21 15:59:33;;;;;;;3.30;2.47;;;18.80;98.10;;;;;;10562852;27;20047;-28
2023/11/21 16:04:36;;;;;;;4.88;1.88;;;18.20;98.70;;;;;;10552505;27;20060;-27
2023/11/21 16:09:42;;;;;;;4.78;3.03;;;18.50;98.70;;;;;;10552659;27;20050;-27
2023/11/21 16:14:45;;;;;;;4.85;2.63;;;18.20;97.90;;;;;;10558181;27;20158;-28
2023/11/21 16:19:47;;;;;;;3.58;1.88;;;18.40;98.20;;;;;;10555778;28;20511;-29
2023/11/21 16:24:50;;;;;;;4.70;2.65;;;18.50;99.00;;;;;;10556460;27;20052;-28
2023/11/21 16:29:52;;;;;;;5.22;2.40;;;18.30;97.40;;;;;;10559337;28;20052;-28
2023/11/21 16:34:55;;;;;;;5.03;2.30;;;18.10;97.40;;;;;;10553929;28;20073;-29
2023/11/21 16:39:58;;;;;;;6.13;3.70;;;17.90;98.90;;;;;;10550056;28;20719;-28
2023/11/21 16:45:00;;;;;;;4.20;2.63;;;17.30;98.40;;;;;;10562329;28;20043;-29
2023/11/21 16:50:02;;;;;;;4.13;3.20;;;17.60;99.90;;;;;;10559606;27;20051;-28
2023/11/21 16:55:08;;;;;;;4.25;2.58;;;17.30;99.70;;;;;;10553743;28;20157;-28
2023/11/21 17:00:12;;;;;;;7.25;3.20;;;17.60;99.70;;;;;;10557840;28;20043;-29
2023/11/21 17:05:14;;;;;;;5.40;3.20;;;17.60;98.90;;;;;;10550558;28;22533;-28
2023/11/21 17:10:19;;;;;;;4.22;3.25;;;17.20;99.90;;;;;;10554015;27;20956;-28
2023/11/21 17:15:22;;;;;;;3.53;2.70;;;16.70;98.70;;;;;;10557698;27;20051;-28
2023/11/21 17:20:26;;;;;;;6.35;3.80;;;17.50;99.90;;;;;;10561497;27;20434;-27
2023/11/21 17:25:29;;;;;;;7.75;4.03;;;16.80;97.80;;;;;;10564643;27;20052;-28
2023/11/21 17:30:31;;;;;;;4.45;3.10;;;16.50;99.90;;;;;;10547005;27;20703;-28
2023/11/21 17:35:34;;;;;;;8.80;4.17;;;16.80;99.90;;;;;;10561175;27;20051;-29
2023/11/21 17:40:39;;;;;;;6.30;4.10;;;16.60;99.90;;;;;;10556860;27;20055;-27
2023/11/21 17:45:41;;;;;;;6.70;3.47;;;16.90;99.90;;;;;;10556624;27;20056;-27
2023/11/21 17:50:43;;;;;;;5.90;2.70;;;17.20;99.90;;;;;;10555983;27;20097;-28
2023/11/21 17:55:46;;;;;;;3.75;2.40;;;17.80;99.90;;;;;;10551130;27;20051;-30
2023/11/21 18:00:48;;;;;;;4.68;2.25;;;18.00;99.90;;;;;;10558036;27;20132;-28
2023/11/21 18:05:50;;;;;;;4.23;2.47;;;18.00;99.90;;;;;;10562800;27;20647;-29
2023/11/21 18:10:53;;;;;;;7.50;3.17;;;17.90;99.30;;;;;;10559866;27;21435;-29
2023/11/21 18:15:55;;;;;;;14.20;4.88;;;17.20;99.90;;;;;;10566292;27;20107;-27
2023/11/21 18:20:57;;;;;;;11.30;4.93;;;17.30;99.90;;;;;;10561159;27;20055;-31
2023/11/21 18:26:00;;;;;;;16.90;5.50;;;17.60;99.90;;;;;;10566445;27;20113;-31
2023/11/21 18:31:06;;;;;;;11.35;4.80;;;18.00;99.90;;;;;;10568379;27;20067;-31
2023/11/21 18:36:08;;;;;;;10.07;4.45;;;17.90;99.90;;;;;;10557816;27;20493;-33
2023/11/21 18:41:11;;;;;;;7.18;3.67;;;17.90;99.90;;;;;;10559667;27;20072;-29
2023/11/21 18:46:13;;;;;;;4.20;2.80;;;17.90;99.90;;;;;;10559125;27;20740;-30
2023/11/21 18:51:15;;;;;;;9.45;2.30;;;18.00;99.90;;;;;;10562165;27;20059;-30
2023/11/21 18:56:23;;;;;;;10.77;2.33;;;18.10;99.90;;;;;;10557251;27;20051;-30
2023/11/21 19:01:28;;;;;;;8.38;3.38;;;18.10;99.90;;;;;;10555960;27;20558;-30
2023/11/21 19:06:30;;;;;;;5.28;2.40;;;18.10;99.90;;;;;;10558873;27;20091;-29
2023/11/21 19:11:33;;;;;;;4.28;1.80;;;18.10;99.90;;;;;;10563425;27;20505;-31
2023/11/21 19:16:35;;;;;;;6.72;2.00;;;18.10;99.90;;;;;;10562981;27;20051;-32
2023/11/21 19:21:37;;;;;;;3.67;2.17;;;18.10;99.90;;;;;;10568026;27;20078;-30
2023/11/21 19:26:41;;;;;;;5.17;2.00;;;18.10;99.90;;;;;;10558409;27;20490;-34
2023/11/21 19:31:42;;;;;;;5.03;2.10;;;18.10;99.90;;;;;;10565628;27;20047;-31
2023/11/21 19:36:44;;;;;;;6.97;1.88;;;18.10;99.90;;;;;;10556684;27;20063;-28
2023/11/21 19:41:49;;;;;;;3.87;1.70;;;18.10;99.90;;;;;;10551721;27;20099;-32
2023/11/21 19:46:51;;;;;;;5.55;2.15;;;18.20;99.90;;;;;;10562644;27;20047;-30
2023/11/21 19:51:53;;;;;;;2.53;1.75;;;18.10;99.90;;;;;;10559342;27;20498;-30
2023/11/21 19:56:56;;;;;;;3.60;1.98;;;18.00;99.90;;;;;;10559912;27;20701;-31
2023/11/21 20:01:58;;;;;;;5.65;1.85;;;18.00;99.90;;;;;;10557958;27;20494;-29
2023/11/21 20:07:00;;;;;;;5.82;1.90;;;18.00;99.90;;;;;;10556717;27;20050;-29
2023/11/21 20:12:04;;;;;;;6.03;2.13;;;18.00;99.90;;;;;;10550743;27;20074;-30
2023/11/21 20:17:06;;;;;;;8.35;3.05;;;18.00;99.90;;;;;;10549675;28;21173;-30
2023/11/21 20:22:07;;;;;;;4.90;2.77;;;18.00;99.90;;;;;;10544824;28;20052;-30
2023/11/21 20:27:11;;;;;;;3.80;2.67;;;17.90;99.90;;;;;;10553000;27;20884;-31
2023/11/21 20:32:13;;;;;;;6.97;2.50;;;17.90;99.90;;;;;;10546194;27;20476;-31
2023/11/21 20:37:15;;;;;;;7.45;2.63;;;17.90;99.90;;;;;;10554379;27;20069;-32
2023/11/21 20:42:18;;;;;;;8.57;2.97;;;17.80;99.90;;;;;;10564337;28;20039;-31
2023/11/21 20:47:20;;;;;;;11.35;3.17;;;17.80;99.90;;;;;;10564433;28;20063;-29
2023/11/21 20:52:22;;;;;;;6.63;2.50;;;17.80;99.90;;;;;;10561371;28;20092;-31
2023/11/21 20:57:25;;;;;;;8.80;2.60;;;17.70;99.90;;;;;;10561575;27;20056;-31
2023/11/21 21:02:26;;;;;;;7.20;2.95;;;17.70;99.90;;;;;;10566687;27;20421;-30
2023/11/21 21:07:29;;;;;;;10.93;2.87;;;17.70;99.90;;;;;;10566189;27;20043;-30
2023/11/21 21:12:32;;;;;;;11.02;3.22;;;17.70;99.90;;;;;;10564785;27;20677;-30
2023/11/21 21:17:34;;;;;;;10.07;3.05;;;17.60;99.90;;;;;;10554390;27;20156;-30
2023/11/21 21:22:35;;;;;;;14.68;4.03;;;17.60;99.90;;;;;;10563134;27;20665;-31
2023/11/21 21:27:39;;;;;;;11.53;3.13;;;17.60;99.90;;;;;;10556863;27;20157;-31
2023/11/21 21:32:40;;;;;;;7.32;2.65;;;17.50;99.90;;;;;;10573251;27;20058;-30
2023/11/21 21:37:43;;;;;;;8.03;2.70;;;17.50;99.90;;;;;;10564159;27;20534;-29
2023/11/21 21:42:46;;;;;;;10.95;2.70;;;17.60;99.90;;;;;;10567292;27;20055;-29
2023/11/21 21:47:48;;;;;;;6.88;3.13;;;17.50;99.90;;;;;;10573558;27;20051;-29
2023/11/21 21:52:50;;;;;;;10.43;2.70;;;17.50;99.90;;;;;;10566448;27;20055;-30
2023/11/21 21:57:54;;;;;;;6.93;2.92;;;17.50;99.90;;;;;;10570011;27;20493;-29
2023/11/21 22:02:57;;;;;;;9.48;3.58;;;17.50;99.90;;;;;;10571985;27;20915;-30
2023/11/21 22:07:59;;;;;;;11.45;3.67;;;17.40;99.90;;;;;;10570033;27;20120;-30
2023/11/21 22:13:02;;;;;;;12.00;3.37;;;17.40;99.90;;;;;;10566597;27;20167;-30
2023/11/21 22:18:04;;;;;;;8.88;3.40;;;17.40;99.90;;;;;;10572396;27;20419;-30
2023/11/21 22:23:06;;;;;;;16.35;3.55;;;17.40;99.90;;;;;;10564914;27;20157;-30
2023/11/21 22:28:09;;;;;;;10.23;3.90;;;17.40;99.90;;;;;;10561467;27;20058;-31
2023/11/21 22:33:11;;;;;;;12.98;3.45;;;17.30;99.90;;;;;;10560118;27;20552;-29
2023/11/21 22:38:15;;;;;;;7.38;3.00;;;17.40;99.90;;;;;;10563297;27;20111;-30
2023/11/21 22:43:18;;;;;;;6.82;3.47;;;17.30;99.90;;;;;;10558285;27;20074;-31
2023/11/21 22:48:20;;;;;;;6.65;2.95;;;17.30;99.90;;;;;;10550483;27;20455;-28
2023/11/21 22:53:22;;;;;;;4.87;2.80;;;17.30;99.90;;;;;;10566866;27;20047;-30
2023/11/21 22:58:25;;;;;;;5.63;3.00;;;17.30;99.90;;;;;;10563198;27;20051;-30
2023/11/21 23:03:26;;;;;;;4.88;2.50;;;17.30;99.90;;;;;;10559135;27;20051;-31
2023/11/21 23:08:29;;;;;;;5.13;2.63;;;17.30;99.90;;;;;;10567950;27;20048;-29
2023/11/21 23:13:32;;;;;;;8.80;3.17;;;17.30;99.90;;;;;;10561327;27;20839;-29
2023/11/21 23:18:34;;;;;;;5.07;2.28;;;17.30;99.90;;;;;;10562586;27;20093;-31
2023/11/21 23:23:36;;;;;;;5.83;2.40;;;17.30;99.90;;;;;;10564713;27;20139;-32
2023/11/21 23:28:39;;;;;;;4.93;2.10;;;17.20;99.90;;;;;;10572497;27;20081;-31
2023/11/21 23:33:41;;;;;;;6.18;2.65;;;17.30;99.90;;;;;;10571025;27;20059;-30
2023/11/21 23:38:43;;;;;;;3.07;1.73;;;17.20;99.90;;;;;;10566281;27;20070;-30
2023/11/21 23:43:46;;;;;;;5.97;2.75;;;17.20;99.90;;;;;;10574181;27;20055;-29
2023/11/21 23:48:48;;;;;;;7.82;2.60;;;17.20;99.90;;;;;;10565890;27;20501;-30
2023/11/21 23:53:50;;;;;;;4.75;2.47;;;17.20;99.90;;;;;;10566531;27;20120;-30
2023/11/21 23:58:54;;;;;;;4.97;2.20;;;17.20;99.90;;;;;;10566316;27;20072;-30
